Time;durP1;ratioP1;P1;durP2;ratioP2;P2;SDS_P1;SDS_P2;PMS_P1;PMS_P2;Temp;Humidity;BMP_temperature;BMP_pressure;BME280_temperature;BME280_humidity;BME280_pressure;Samples;Min_cycle;Max_cycle;Signal;HPM_P1;HPM_P2
2021/06/03 00:01:54;;;;;;;3.00;2.80;;;11.80;99.90;;;;;;5054333;28;20056;-89
2021/06/03 00:04:21;;;;;;;3.17;2.97;;;11.80;99.90;;;;;;5036498;28;20444;-89
2021/06/03 00:06:48;;;;;;;5.63;3.60;;;11.70;99.90;;;;;;5036408;28;20053;-89
2021/06/03 00:09:14;;;;;;;3.83;3.38;;;11.70;99.90;;;;;;5053402;28;20493;-88
2021/06/03 00:11:41;;;;;;;3.83;3.40;;;11.70;99.90;;;;;;5036645;28;20128;-89
2021/06/03 00:14:09;;;;;;;3.47;3.28;;;11.70;99.90;;;;;;5053977;28;20091;-89
2021/06/03 00:16:36;;;;;;;4.07;3.58;;;11.70;99.90;;;;;;5036131;28;20049;-88
2021/06/03 00:19:07;;;;;;;5.53;3.45;;;11.70;99.90;;;;;;5053737;28;20140;-88
2021/06/03 00:21:35;;;;;;;5.63;3.38;;;11.70;99.90;;;;;;5036012;28;20055;-88
2021/06/03 00:24:03;;;;;;;3.40;3.20;;;11.70;99.90;;;;;;5053780;28;20442;-88
2021/06/03 00:26:30;;;;;;;3.63;3.35;;;11.70;99.90;;;;;;5035976;28;20143;-89
2021/06/03 00:28:57;;;;;;;4.40;3.35;;;11.80;99.90;;;;;;5036572;28;20408;-89
2021/06/03 00:31:24;;;;;;;4.03;3.65;;;11.80;99.90;;;;;;5036111;28;20063;-89
2021/06/03 00:33:51;;;;;;;4.15;3.80;;;11.80;99.90;;;;;;5036308;28;20132;-87
2021/06/03 00:36:18;;;;;;;9.38;3.97;;;11.80;99.90;;;;;;5053945;28;20056;-89
2021/06/03 00:38:44;;;;;;;4.00;3.70;;;11.80;99.90;;;;;;5036289;28;20052;-89
2021/06/03 00:41:14;;;;;;;4.07;3.72;;;11.70;99.90;;;;;;5036096;28;20059;-89
2021/06/03 00:43:41;;;;;;;3.53;3.22;;;11.60;99.90;;;;;;5036036;28;20049;-89
2021/06/03 00:46:08;;;;;;;4.13;3.83;;;11.70;99.90;;;;;;5053368;28;20049;-89
2021/06/03 00:48:36;;;;;;;5.15;3.78;;;11.60;99.90;;;;;;5053336;28;20049;-88
2021/06/03 00:51:06;;;;;;;6.72;3.90;;;11.60;99.90;;;;;;5038343;28;20045;-88
2021/06/03 00:53:34;;;;;;;4.05;3.75;;;11.60;99.90;;;;;;5039707;28;20132;-88
2021/06/03 00:56:02;;;;;;;4.22;3.85;;;11.60;99.90;;;;;;5057281;28;20049;-89
2021/06/03 00:58:29;;;;;;;5.18;4.03;;;11.60;99.90;;;;;;5057194;28;20412;-88
2021/06/03 01:00:57;;;;;;;4.97;4.13;;;11.60;99.90;;;;;;5057009;28;20045;-88
2021/06/03 01:03:28;;;;;;;4.35;3.75;;;11.60;99.90;;;;;;5039905;28;20486;-88
2021/06/03 01:05:59;;;;;;;4.90;4.13;;;11.60;99.90;;;;;;5039829;28;20055;-89
2021/06/03 01:08:33;;;;;;;7.22;4.05;;;11.60;99.90;;;;;;5039681;28;20057;-89
2021/06/03 01:11:10;;;;;;;5.10;4.00;;;11.60;99.90;;;;;;5039487;28;20124;-89
2021/06/03 01:13:44;;;;;;;4.78;4.38;;;11.60;99.90;;;;;;5039545;28;20045;-88
2021/06/03 01:16:12;;;;;;;4.30;4.00;;;11.50;99.90;;;;;;5040994;28;20059;-88
2021/06/03 01:18:41;;;;;;;4.35;3.95;;;11.50;99.90;;;;;;5051034;28;20156;-88
2021/06/03 01:21:13;;;;;;;4.70;3.95;;;11.50;99.90;;;;;;5057200;28;20049;-89
2021/06/03 01:23:49;;;;;;;4.80;4.05;;;11.50;99.90;;;;;;5056739;28;20421;-89
2021/06/03 01:26:17;;;;;;;4.80;4.05;;;11.40;99.90;;;;;;5056945;28;20051;-88
2021/06/03 01:28:46;;;;;;;5.13;4.72;;;11.40;99.90;;;;;;5056751;28;20378;-89
2021/06/03 01:31:13;;;;;;;4.97;4.50;;;11.30;99.90;;;;;;5056473;28;20140;-89
2021/06/03 01:33:42;;;;;;;4.57;4.18;;;11.30;99.90;;;;;;5056646;28;20060;-89
2021/06/03 01:36:12;;;;;;;4.38;4.00;;;11.30;99.90;;;;;;5039143;28;20059;-89
2021/06/03 01:38:41;;;;;;;5.35;4.15;;;11.30;99.90;;;;;;5039057;28;20071;-89
2021/06/03 01:41:09;;;;;;;6.00;4.20;;;11.20;99.90;;;;;;5038994;28;20053;-88
2021/06/03 01:43:42;;;;;;;5.80;4.13;;;11.10;99.90;;;;;;5038934;28;20135;-89
2021/06/03 01:46:09;;;;;;;5.60;4.80;;;11.00;99.90;;;;;;5056185;28;20057;-89
2021/06/03 01:48:37;;;;;;;8.23;4.88;;;11.00;99.90;;;;;;5038787;28;20051;-88
2021/06/03 01:51:09;;;;;;;5.45;4.80;;;11.00;99.90;;;;;;5038812;28;20106;-88
2021/06/03 01:53:38;;;;;;;8.35;4.72;;;11.10;99.90;;;;;;5039114;28;20077;-89
2021/06/03 01:56:08;;;;;;;5.88;5.07;;;11.10;99.90;;;;;;5038604;28;20041;-88
2021/06/03 01:58:35;;;;;;;7.30;5.20;;;11.10;99.90;;;;;;5038614;28;20048;-88
2021/06/03 02:01:04;;;;;;;7.68;4.65;;;11.10;99.90;;;;;;5054699;28;20052;-88
2021/06/03 02:03:31;;;;;;;5.50;4.82;;;11.10;99.90;;;;;;5037689;28;20251;-88
2021/06/03 02:05:58;;;;;;;4.78;4.40;;;11.00;99.90;;;;;;5038355;28;20067;-88
2021/06/03 02:08:25;;;;;;;6.43;4.72;;;11.00;99.90;;;;;;5038728;28;20056;-89
2021/06/03 02:10:53;;;;;;;5.60;5.00;;;10.80;99.90;;;;;;5038479;28;20485;-89
2021/06/03 02:13:26;;;;;;;7.93;5.85;;;10.60;99.90;;;;;;5038329;28;20094;-88
2021/06/03 02:15:59;;;;;;;5.75;5.20;;;10.50;99.90;;;;;;5055839;28;20136;-89
2021/06/03 02:18:35;;;;;;;5.25;4.75;;;10.40;99.90;;;;;;5038619;28;20053;-89
2021/06/03 02:21:04;;;;;;;6.05;5.45;;;10.30;99.90;;;;;;5038391;28;20537;-89
2021/06/03 02:23:32;;;;;;;5.68;5.22;;;10.40;99.90;;;;;;5038409;28;20053;-89
2021/06/03 02:26:01;;;;;;;6.07;5.57;;;10.30;99.90;;;;;;5038370;28;20063;-88
2021/06/03 02:28:29;;;;;;;7.47;6.25;;;10.20;99.90;;;;;;5037788;28;20049;-88
2021/06/03 02:30:58;;;;;;;7.22;6.22;;;10.20;99.90;;;;;;5038398;28;20057;-88
2021/06/03 02:33:26;;;;;;;6.20;5.60;;;10.20;99.90;;;;;;5038371;28;20056;-88
2021/06/03 02:35:53;;;;;;;6.93;6.18;;;10.30;99.90;;;;;;5045790;28;20515;-88
2021/06/03 02:38:29;;;;;;;6.80;6.00;;;10.40;99.90;;;;;;5060378;28;20080;-88
2021/06/03 02:40:59;;;;;;;6.40;5.80;;;10.40;99.90;;;;;;5038043;28;20065;-89
2021/06/03 02:43:27;;;;;;;7.13;5.93;;;10.30;99.90;;;;;;5038034;28;20067;-89
2021/06/03 02:45:54;;;;;;;6.72;6.13;;;10.20;99.90;;;;;;5037578;28;20060;-88
2021/06/03 02:48:22;;;;;;;6.15;5.63;;;10.20;99.90;;;;;;5037849;28;20102;-89
2021/06/03 02:50:49;;;;;;;7.10;6.35;;;10.10;99.90;;;;;;5037846;28;20624;-89
2021/06/03 02:53:16;;;;;;;8.00;6.53;;;10.10;99.90;;;;;;5037891;28;20045;-89
2021/06/03 02:55:43;;;;;;;13.32;6.38;;;10.00;99.90;;;;;;5054660;28;20057;-88
2021/06/03 02:58:10;;;;;;;6.75;6.25;;;10.10;99.90;;;;;;5037693;28;20041;-88
2021/06/03 03:00:38;;;;;;;6.82;5.90;;;9.90;99.90;;;;;;5054829;28;20059;-89
2021/06/03 03:03:08;;;;;;;10.98;6.80;;;10.00;99.90;;;;;;5037740;28;20088;-89
2021/06/03 03:05:40;;;;;;;9.55;6.65;;;9.90;99.90;;;;;;5037573;28;20045;-88
2021/06/03 03:08:08;;;;;;;8.93;6.88;;;9.90;99.90;;;;;;5037592;28;20067;-89
2021/06/03 03:10:37;;;;;;;8.95;6.75;;;10.00;99.90;;;;;;5054521;28;20116;-89
2021/06/03 03:13:06;;;;;;;10.70;7.63;;;10.00;99.90;;;;;;5037222;28;20515;-90
2021/06/03 03:15:34;;;;;;;10.13;6.50;;;10.00;99.90;;;;;;5054675;28;20041;-89
2021/06/03 03:18:01;;;;;;;8.35;7.10;;;10.00;99.90;;;;;;5037254;28;20139;-89
2021/06/03 03:20:29;;;;;;;10.02;6.45;;;9.90;99.90;;;;;;5054652;28;20041;-89
2021/06/03 03:22:57;;;;;;;9.00;6.65;;;9.80;99.90;;;;;;5054683;28;20079;-89
2021/06/03 03:25:26;;;;;;;7.28;6.57;;;9.90;99.90;;;;;;5054683;28;20110;-88
2021/06/03 03:27:55;;;;;;;7.97;6.60;;;9.90;99.90;;;;;;5037316;28;20055;-89
2021/06/03 03:30:26;;;;;;;11.38;6.82;;;9.80;99.90;;;;;;5054399;28;20076;-89
2021/06/03 03:32:53;;;;;;;7.45;6.70;;;9.70;99.90;;;;;;5037095;28;20049;-89
2021/06/03 03:35:21;;;;;;;9.05;7.22;;;9.60;99.90;;;;;;5054255;28;20072;-89
2021/06/03 03:37:49;;;;;;;10.35;7.70;;;9.50;99.90;;;;;;5036995;28;20581;-89
2021/06/03 03:40:20;;;;;;;8.13;7.38;;;9.50;99.90;;;;;;5037096;28;20072;-88
2021/06/03 03:42:47;;;;;;;9.75;8.38;;;9.50;99.90;;;;;;5036996;28;20088;-89
2021/06/03 03:45:17;;;;;;;8.82;7.95;;;9.50;99.90;;;;;;5054138;28;20485;-89
2021/06/03 03:47:44;;;;;;;9.52;7.90;;;9.60;99.90;;;;;;5037098;28;20390;-89
2021/06/03 03:50:14;;;;;;;7.93;7.13;;;9.50;99.90;;;;;;5036977;28;20044;-89
2021/06/03 03:52:42;;;;;;;9.15;8.25;;;9.40;99.90;;;;;;5054228;28;20049;-88
2021/06/03 03:55:10;;;;;;;8.60;7.88;;;9.40;99.90;;;;;;5066497;28;20113;-89
2021/06/03 03:57:37;;;;;;;9.57;8.68;;;9.30;99.90;;;;;;5039407;28;20127;-89
2021/06/03 04:00:07;;;;;;;9.60;8.32;;;9.30;99.90;;;;;;5036484;28;20060;-89
2021/06/03 04:02:34;;;;;;;12.80;8.98;;;9.30;99.90;;;;;;5036410;28;20055;-88
2021/06/03 04:05:01;;;;;;;9.38;8.38;;;9.30;99.90;;;;;;5053993;28;20055;-89
2021/06/03 04:07:27;;;;;;;10.05;8.65;;;9.40;99.90;;;;;;5053844;28;20132;-89
2021/06/03 04:09:54;;;;;;;10.60;9.40;;;9.40;99.90;;;;;;5052772;28;20063;-89
2021/06/03 04:12:22;;;;;;;10.00;8.80;;;9.50;99.90;;;;;;5036620;28;20048;-89
2021/06/03 04:14:49;;;;;;;9.98;8.50;;;9.60;99.90;;;;;;5036258;28;20059;-89
2021/06/03 04:17:16;;;;;;;8.75;7.90;;;9.70;99.90;;;;;;5036444;28;20053;-88
2021/06/03 04:19:43;;;;;;;8.23;7.43;;;9.80;99.90;;;;;;5053876;28;20512;-88
2021/06/03 04:22:09;;;;;;;10.82;7.80;;;9.90;99.90;;;;;;5036189;28;20497;-89
2021/06/03 04:24:36;;;;;;;7.80;6.90;;;10.00;99.90;;;;;;5053485;28;20491;-89
2021/06/03 04:27:03;;;;;;;10.48;7.28;;;10.00;99.90;;;;;;5036324;28;20049;-89
2021/06/03 04:29:30;;;;;;;9.05;6.78;;;10.10;99.90;;;;;;5036143;28;20485;-89
2021/06/03 04:31:57;;;;;;;11.88;7.75;;;10.20;99.90;;;;;;5036022;28;20045;-89
2021/06/03 04:34:24;;;;;;;8.20;7.40;;;10.20;99.90;;;;;;5036254;28;20124;-89
2021/06/03 04:36:51;;;;;;;8.85;6.75;;;10.20;99.90;;;;;;5035910;28;20049;-88
2021/06/03 04:39:18;;;;;;;7.28;6.57;;;10.30;99.90;;;;;;5053666;28;20076;-87
2021/06/03 04:41:44;;;;;;;7.60;6.85;;;10.50;99.90;;;;;;5036633;28;20078;-88
2021/06/03 04:44:11;;;;;;;7.20;6.50;;;10.60;99.90;;;;;;5054100;28;20051;-89
2021/06/03 04:46:38;;;;;;;8.20;6.50;;;10.70;99.90;;;;;;5052464;28;20045;-89
2021/06/03 04:49:05;;;;;;;6.50;5.60;;;10.80;99.90;;;;;;5035997;28;20076;-89
2021/06/03 04:51:32;;;;;;;7.38;5.88;;;11.00;99.90;;;;;;5035868;28;20041;-88
2021/06/03 04:53:58;;;;;;;5.90;5.22;;;11.20;99.90;;;;;;5053507;28;20055;-89
2021/06/03 04:56:25;;;;;;;8.65;5.70;;;11.40;99.90;;;;;;5052939;28;20075;-89
2021/06/03 04:58:52;;;;;;;9.80;5.55;;;11.60;99.90;;;;;;5052986;28;20049;-88
2021/06/03 05:01:19;;;;;;;7.95;4.82;;;11.90;99.90;;;;;;5053049;28;20136;-89
2021/06/03 05:03:46;;;;;;;5.63;4.95;;;12.20;99.90;;;;;;5035712;28;20091;-88
2021/06/03 05:06:12;;;;;;;7.97;5.03;;;12.50;99.90;;;;;;5052138;28;20477;-88
2021/06/03 05:08:39;;;;;;;4.82;4.43;;;12.70;99.90;;;;;;5052940;28;20049;-88
2021/06/03 05:11:06;;;;;;;4.80;4.10;;;13.00;99.90;;;;;;5037032;28;20049;-89
2021/06/03 05:13:33;;;;;;;7.65;5.45;;;13.40;99.90;;;;;;5063088;28;20109;-89
2021/06/03 05:16:00;;;;;;;5.47;4.03;;;14.60;99.90;;;;;;5044185;28;20508;-89
2021/06/03 05:18:27;;;;;;;9.65;4.32;;;16.00;99.90;;;;;;5051930;28;20067;-89
2021/06/03 05:20:54;;;;;;;11.82;4.90;;;17.80;99.90;;;;;;5035638;28;20053;-90
2021/06/03 05:23:22;;;;;;;5.25;3.60;;;19.60;99.90;;;;;;5035518;28;20053;-90
2021/06/03 05:25:49;;;;;;;12.32;5.90;;;20.70;99.90;;;;;;5035721;28;20081;-91
2021/06/03 05:28:16;;;;;;;3.67;3.33;;;21.20;99.90;;;;;;5035905;28;20077;-89
2021/06/03 05:30:43;;;;;;;7.03;3.95;;;22.10;99.90;;;;;;5035555;28;20052;-89
2021/06/03 05:33:10;;;;;;;12.98;5.50;;;22.90;99.90;;;;;;5035764;28;20486;-87
2021/06/03 05:35:37;;;;;;;9.10;4.80;;;22.70;99.90;;;;;;5035473;28;20044;-89
2021/06/03 05:38:04;;;;;;;15.75;7.05;;;23.20;99.90;;;;;;5037917;28;20057;-89
2021/06/03 05:40:33;;;;;;;25.58;7.90;;;22.90;99.10;;;;;;5038987;28;20060;-89
2021/06/03 05:43:00;;;;;;;13.38;5.15;;;22.70;99.80;;;;;;5038957;28;20139;-89
2021/06/03 05:45:27;;;;;;;11.15;3.95;;;22.70;99.90;;;;;;5039261;28;20154;-89
2021/06/03 05:47:54;;;;;;;20.25;7.97;;;22.90;99.90;;;;;;5039106;28;20052;-91
2021/06/03 05:50:24;;;;;;;21.92;8.45;;;23.80;97.00;;;;;;5039042;28;20076;-92
2021/06/03 05:52:52;;;;;;;26.33;8.93;;;24.80;94.80;;;;;;5038299;28;20457;-89
2021/06/03 05:55:21;;;;;;;34.00;10.10;;;25.60;91.50;;;;;;5037468;28;20144;-90
2021/06/03 05:57:49;;;;;;;20.80;6.72;;;26.30;86.70;;;;;;5038145;28;20083;-91
2021/06/03 06:00:20;;;;;;;17.08;5.78;;;27.10;80.70;;;;;;5056210;28;20055;-91
2021/06/03 06:02:55;;;;;;;19.35;6.25;;;27.00;78.00;;;;;;5038431;28;20048;-90
2021/06/03 06:08:10;;;;;;;15.23;4.88;;;26.20;78.10;;;;;;5056539;28;20045;-90
2021/06/03 06:10:37;;;;;;;13.63;4.75;;;25.60;79.60;;;;;;5038652;28;20569;-91
2021/06/03 06:13:05;;;;;;;9.27;3.97;;;25.10;82.70;;;;;;5038400;28;20116;-91
2021/06/03 06:15:33;;;;;;;5.97;3.17;;;25.80;82.50;;;;;;5038304;28;20128;-89
2021/06/03 06:18:00;;;;;;;5.07;2.83;;;26.80;79.20;;;;;;5038630;28;20071;-90
2021/06/03 06:20:27;;;;;;;6.80;3.58;;;28.30;74.00;;;;;;5038514;28;20103;-90
2021/06/03 06:22:55;;;;;;;5.47;3.72;;;29.40;69.10;;;;;;5038256;28;20136;-89
2021/06/03 06:25:23;;;;;;;16.48;8.00;;;29.70;67.30;;;;;;5056016;28;20044;-89
2021/06/03 06:27:54;;;;;;;7.20;3.80;;;30.30;65.00;;;;;;5039512;28;20052;-91
2021/06/03 06:30:21;;;;;;;9.23;3.42;;;30.60;63.00;;;;;;5039515;28;20064;-91
2021/06/03 06:32:48;;;;;;;4.47;3.33;;;29.80;64.20;;;;;;5048615;28;20092;-90
2021/06/03 06:35:17;;;;;;;6.63;3.30;;;30.30;63.80;;;;;;5049354;28;20521;-90
2021/06/03 06:37:44;;;;;;;12.35;3.38;;;31.00;63.70;;;;;;5037950;28;20143;-89
2021/06/03 06:40:11;;;;;;;10.80;3.00;;;31.20;62.60;;;;;;5037518;28;20049;-88
2021/06/03 06:42:38;;;;;;;5.78;3.40;;;31.50;60.60;;;;;;5037567;28;20064;-88
2021/06/03 06:45:07;;;;;;;8.63;3.33;;;31.80;60.30;;;;;;5037788;28;20476;-90
2021/06/03 06:47:35;;;;;;;10.38;2.78;;;31.70;57.60;;;;;;5037393;28;20143;-89
2021/06/03 06:50:07;;;;;;;12.48;2.92;;;33.00;58.10;;;;;;5037667;28;20048;-88
2021/06/03 06:52:34;;;;;;;3.88;2.92;;;33.50;57.20;;;;;;5037558;28;20053;-89
2021/06/03 06:55:03;;;;;;;5.85;2.58;;;34.20;56.20;;;;;;5037081;28;20064;-90
2021/06/03 06:57:30;;;;;;;7.50;3.08;;;35.40;54.90;;;;;;5039849;28;20056;-89
2021/06/03 06:59:56;;;;;;;7.97;2.42;;;36.10;52.20;;;;;;5040986;28;20409;-91
2021/06/03 07:02:23;;;;;;;22.00;3.70;;;34.60;51.20;;;;;;5040030;28;20136;-90
2021/06/03 07:04:51;;;;;;;10.68;2.60;;;32.70;54.20;;;;;;5036787;28;20133;-89
2021/06/03 07:07:18;;;;;;;5.97;2.65;;;31.60;55.30;;;;;;5037458;28;20570;-90
2021/06/03 07:09:44;;;;;;;11.77;2.70;;;31.30;57.60;;;;;;5037245;28;20048;-89
2021/06/03 07:12:15;;;;;;;5.40;2.03;;;31.20;58.80;;;;;;5037206;28;20055;-89
2021/06/03 07:14:42;;;;;;;5.28;1.80;;;32.70;55.90;;;;;;5037340;28;20409;-90
2021/06/03 07:17:09;;;;;;;3.00;1.60;;;33.40;52.70;;;;;;5036983;28;20453;-91
2021/06/03 07:19:35;;;;;;;3.47;2.00;;;34.60;49.50;;;;;;5036822;28;20135;-90
2021/06/03 07:22:03;;;;;;;5.13;1.80;;;34.90;49.80;;;;;;5036947;28;20052;-88
2021/06/03 07:24:29;;;;;;;9.40;1.95;;;34.30;51.40;;;;;;5036942;28;20493;-91
2021/06/03 07:26:56;;;;;;;4.70;2.17;;;33.70;50.20;;;;;;5036805;28;20136;-89
2021/06/03 07:29:23;;;;;;;4.10;1.30;;;33.30;47.00;;;;;;5037027;28;20135;-88
2021/06/03 07:31:50;;;;;;;5.35;1.52;;;33.40;45.50;;;;;;5037173;28;20049;-90
2021/06/03 07:34:16;;;;;;;8.02;1.67;;;34.30;47.20;;;;;;5036534;28;20103;-89
2021/06/03 07:36:43;;;;;;;2.78;1.40;;;35.70;44.90;;;;;;5037485;28;20119;-87
2021/06/03 07:39:10;;;;;;;1.90;1.23;;;34.60;43.40;;;;;;5036706;28;20051;-88
2021/06/03 07:41:37;;;;;;;2.63;1.45;;;34.50;44.10;;;;;;5036999;28;20139;-95
2021/06/03 07:44:07;;;;;;;3.10;1.48;;;35.00;44.40;;;;;;5039042;28;20045;-91
2021/06/03 07:46:34;;;;;;;6.88;1.80;;;32.00;45.50;;;;;;5037895;28;20140;-88
2021/06/03 07:49:01;;;;;;;4.35;1.25;;;31.30;46.30;;;;;;5037002;28;20057;-93
2021/06/03 07:51:27;;;;;;;3.95;1.67;;;31.30;47.40;;;;;;5047315;28;20049;-91
2021/06/03 07:53:58;;;;;;;5.80;1.70;;;31.30;46.90;;;;;;5053268;28;20060;-92
2021/06/03 07:56:25;;;;;;;11.93;2.63;;;32.10;46.20;;;;;;5036238;28;20144;-88
2021/06/03 07:58:53;;;;;;;14.43;3.13;;;32.70;45.50;;;;;;5036713;28;20049;-91
2021/06/03 08:01:20;;;;;;;7.72;2.10;;;33.70;44.90;;;;;;5035603;28;20063;-87
2021/06/03 08:03:47;;;;;;;5.78;1.30;;;33.00;44.50;;;;;;5036779;28;20049;-86
2021/06/03 08:06:13;;;;;;;1.40;1.30;;;33.40;43.60;;;;;;5036290;28;20052;-88
2021/06/03 08:08:40;;;;;;;4.13;1.25;;;34.00;43.90;;;;;;5036144;28;20063;-86
2021/06/03 08:11:08;;;;;;;8.60;1.80;;;34.70;42.20;;;;;;5036672;28;20049;-90
2021/06/03 08:13:36;;;;;;;5.25;1.42;;;34.00;42.10;;;;;;5036319;28;20484;-87
2021/06/03 08:16:05;;;;;;;7.45;1.15;;;33.70;43.50;;;;;;5036000;28;20055;-87
2021/06/03 08:18:34;;;;;;;3.38;1.30;;;33.70;42.70;;;;;;5036453;28;20055;-88
2021/06/03 08:21:04;;;;;;;4.07;1.23;;;35.00;44.30;;;;;;5035953;28;20140;-88
2021/06/03 08:23:31;;;;;;;4.47;1.80;;;36.30;41.80;;;;;;5036032;28;20056;-88
2021/06/03 08:25:59;;;;;;;4.13;1.50;;;35.60;42.00;;;;;;5036049;28;20045;-87
2021/06/03 08:28:27;;;;;;;1.40;1.10;;;36.10;42.10;;;;;;5036071;28;20095;-88
2021/06/03 08:30:56;;;;;;;7.10;1.50;;;35.60;40.80;;;;;;5036021;28;20055;-88
2021/06/03 08:33:25;;;;;;;1.25;1.15;;;35.60;41.30;;;;;;5036049;28;20060;-87
2021/06/03 08:35:52;;;;;;;4.80;2.22;;;36.60;40.80;;;;;;5035796;28;20517;-87
2021/06/03 08:38:20;;;;;;;6.45;1.70;;;37.30;40.60;;;;;;5025264;28;20056;-89
2021/06/03 08:40:50;;;;;;;4.00;1.23;;;38.90;38.20;;;;;;5015172;28;20080;-87
2021/06/03 08:43:18;;;;;;;3.20;1.08;;;38.90;37.60;;;;;;5015506;28;20474;-90
2021/06/03 08:45:45;;;;;;;2.75;1.50;;;38.70;37.20;;;;;;5014729;28;20045;-88
2021/06/03 08:48:13;;;;;;;2.00;1.48;;;38.30;38.10;;;;;;5014135;28;20096;-91
2021/06/03 08:50:50;;;;;;;4.80;1.17;;;37.50;37.30;;;;;;5015786;28;20120;-91
2021/06/03 08:53:17;;;;;;;1.00;0.88;;;36.60;39.20;;;;;;5015338;28;20136;-87
2021/06/03 08:58:32;;;;;;;1.13;1.00;;;36.20;37.90;;;;;;5033508;28;20092;-87
2021/06/03 09:01:00;;;;;;;2.97;1.17;;;36.80;38.30;;;;;;5015580;28;20104;-88
2021/06/03 09:03:29;;;;;;;6.65;1.60;;;37.10;38.00;;;;;;5015873;28;20049;-87
2021/06/03 09:05:57;;;;;;;3.47;2.25;;;38.00;38.50;;;;;;5017183;28;20045;-88
2021/06/03 09:08:38;;;;;;;10.00;2.33;;;37.90;37.50;;;;;;5017015;28;20057;-87
2021/06/03 09:11:10;;;;;;;3.92;1.10;;;38.60;37.20;;;;;;5032661;28;20065;-87
2021/06/03 09:13:40;;;;;;;1.17;1.00;;;40.20;36.30;;;;;;5021859;28;20049;-87
2021/06/03 09:16:10;;;;;;;5.82;0.98;;;42.90;34.60;;;;;;5019778;28;20052;-89
2021/06/03 09:18:42;;;;;;;2.03;1.10;;;44.00;33.80;;;;;;5020325;28;20486;-88
2021/06/03 09:21:22;;;;;;;1.02;0.98;;;44.90;32.70;;;;;;5019290;28;20041;-89
2021/06/03 09:23:58;;;;;;;4.20;1.58;;;44.60;32.40;;;;;;5019452;28;20140;-89
2021/06/03 09:26:46;;;;;;;1.50;1.00;;;43.90;32.10;;;;;;5036349;28;20476;-89
2021/06/03 09:29:22;;;;;;;1.27;0.88;;;41.70;34.00;;;;;;5019162;28;20540;-88
2021/06/03 09:31:50;;;;;;;4.70;1.10;;;41.70;34.00;;;;;;5019740;28;20072;-85
2021/06/03 09:34:22;;;;;;;1.58;0.90;;;42.00;32.90;;;;;;5019178;28;20059;-87
2021/06/03 09:36:51;;;;;;;1.77;1.35;;;41.60;33.40;;;;;;5019267;28;20049;-88
2021/06/03 09:39:31;;;;;;;10.02;1.92;;;41.00;33.20;;;;;;5036409;28;20052;-89
2021/06/03 09:42:07;;;;;;;7.07;1.80;;;40.20;33.70;;;;;;5019582;28;20049;-88
2021/06/03 09:44:40;;;;;;;4.45;1.02;;;41.10;34.80;;;;;;5018933;28;20056;-86
2021/06/03 09:47:41;;;;;;;2.05;1.00;;;41.40;34.00;;;;;;5021251;28;20060;-89
2021/06/03 09:50:10;;;;;;;4.20;1.00;;;40.60;33.70;;;;;;5018639;28;20049;-88
2021/06/03 09:52:37;;;;;;;6.10;1.50;;;41.10;33.20;;;;;;5019011;28;20050;-86
2021/06/03 09:55:13;;;;;;;1.27;1.13;;;41.00;33.80;;;;;;5018546;28;20081;-88
2021/06/03 09:57:43;;;;;;;1.27;1.05;;;40.30;32.30;;;;;;5018852;28;20128;-88
2021/06/03 10:00:21;;;;;;;4.00;1.70;;;40.80;33.60;;;;;;5019534;28;20045;-88
2021/06/03 10:03:00;;;;;;;2.38;1.10;;;39.50;33.90;;;;;;5018699;28;20051;-87
2021/06/03 10:05:27;;;;;;;1.00;0.80;;;39.30;34.20;;;;;;5018688;28;20132;-87
2021/06/03 10:07:57;;;;;;;1.20;0.90;;;41.50;33.00;;;;;;5018888;28;20042;-89
2021/06/03 10:10:27;;;;;;;2.72;1.15;;;41.80;33.10;;;;;;5035913;28;20145;-90
2021/06/03 10:12:55;;;;;;;1.05;0.90;;;41.70;32.60;;;;;;5035975;28;20490;-90
2021/06/03 10:15:23;;;;;;;3.50;1.27;;;40.70;31.70;;;;;;5018372;28;20502;-88
2021/06/03 10:17:50;;;;;;;1.42;1.10;;;40.60;32.40;;;;;;5019295;28;20064;-94
2021/06/03 10:20:20;;;;;;;5.95;1.30;;;38.90;33.10;;;;;;5020416;28;20068;-93
2021/06/03 10:22:51;;;;;;;3.35;1.00;;;38.50;33.60;;;;;;5021548;28;20465;-93
2021/06/03 10:25:26;;;;;;;5.93;3.13;;;36.60;34.90;;;;;;5019840;28;20082;-90
2021/06/03 10:28:09;;;;;;;3.97;1.80;;;36.60;36.10;;;;;;5025915;28;20112;-88
2021/06/03 10:30:40;;;;;;;1.20;1.10;;;37.40;35.60;;;;;;5037192;28;20077;-88
2021/06/03 10:33:19;;;;;;;2.53;1.10;;;38.70;35.30;;;;;;5019472;28;20046;-90
2021/06/03 10:35:49;;;;;;;2.28;1.02;;;38.20;36.00;;;;;;5018298;28;20532;-89
2021/06/03 10:38:18;;;;;;;0.85;0.85;;;38.20;35.70;;;;;;5018880;28;20041;-88
2021/06/03 10:40:49;;;;;;;0.90;0.82;;;37.70;34.40;;;;;;5018214;28;20059;-85
2021/06/03 10:43:16;;;;;;;1.33;0.90;;;36.50;34.70;;;;;;5035125;28;20049;-87
2021/06/03 10:45:44;;;;;;;1.05;0.90;;;35.60;36.10;;;;;;5017223;28;20049;-89
2021/06/03 10:48:11;;;;;;;1.20;0.90;;;36.40;37.10;;;;;;5017527;28;20053;-86
2021/06/03 10:50:42;;;;;;;5.70;1.30;;;38.50;35.10;;;;;;5017981;28;20504;-85
2021/06/03 10:53:12;;;;;;;1.10;1.00;;;39.20;33.30;;;;;;5017778;28;20071;-87
2021/06/03 10:55:42;;;;;;;2.25;1.30;;;37.70;33.50;;;;;;5017379;28;20509;-87
2021/06/03 10:58:11;;;;;;;3.22;1.17;;;38.90;35.00;;;;;;5017366;28;20502;-87
2021/06/03 11:00:59;;;;;;;1.15;0.80;;;40.60;33.40;;;;;;5017705;28;20229;-87
2021/06/03 11:03:40;;;;;;;0.60;0.60;;;41.70;31.60;;;;;;5018245;28;20449;-88
2021/06/03 11:06:16;;;;;;;2.58;0.80;;;41.20;32.10;;;;;;5017229;28;20049;-87
2021/06/03 11:09:05;;;;;;;0.82;0.77;;;41.40;31.80;;;;;;5035080;28;20057;-87
2021/06/03 11:11:33;;;;;;;1.90;0.85;;;40.70;32.60;;;;;;5036708;28;20056;-87
2021/06/03 11:14:18;;;;;;;3.20;1.40;;;40.10;31.30;;;;;;5018716;28;20092;-88
2021/06/03 11:16:55;;;;;;;1.77;1.10;;;40.40;31.80;;;;;;5017396;28;20049;-87
2021/06/03 11:19:24;;;;;;;4.78;0.95;;;40.60;32.20;;;;;;5035267;28;20053;-87
2021/06/03 11:21:57;;;;;;;5.32;1.55;;;41.20;33.70;;;;;;5020124;28;20433;-90
2021/06/03 11:24:27;;;;;;;;;;;38.50;33.10;;;;;;5005350;28;20132;-95
2021/06/03 11:26:56;;;;;;;2.25;0.80;;;37.70;32.70;;;;;;5027374;28;19931;-89
2021/06/03 11:29:31;;;;;;;1.00;1.00;;;35.40;33.20;;;;;;5050012;28;20057;-92
2021/06/03 11:32:03;;;;;;;1.63;0.90;;;33.90;36.70;;;;;;5021965;28;20498;-91
2021/06/03 11:34:45;;;;;;;1.40;0.80;;;34.00;36.50;;;;;;5017114;28;20058;-89
2021/06/03 11:37:14;;;;;;;1.10;0.98;;;34.50;36.20;;;;;;5018217;28;20053;-88
2021/06/03 11:39:46;;;;;;;1.23;1.00;;;35.30;36.10;;;;;;5017917;28;20108;-87
2021/06/03 11:42:55;;;;;;;0.80;0.80;;;35.80;35.00;;;;;;5017740;28;20069;-87
2021/06/03 11:45:23;;;;;;;1.20;1.10;;;35.20;34.00;;;;;;4939944;29;20085;-88
2021/06/03 11:47:54;;;;;;;1.35;1.15;;;34.40;36.50;;;;;;4945049;29;20542;-89
2021/06/03 11:50:22;;;;;;;1.40;1.13;;;33.80;36.90;;;;;;4985864;28;20049;-90
2021/06/03 11:52:52;;;;;;;1.25;1.15;;;32.90;37.00;;;;;;5018133;28;20129;-92
2021/06/03 11:55:56;;;;;;;2.83;1.10;;;32.30;38.20;;;;;;5018162;28;20064;-89
2021/06/03 11:58:30;;;;;;;5.10;1.15;;;31.90;38.50;;;;;;5018307;28;20050;-90
2021/06/03 12:01:23;;;;;;;1.85;1.08;;;31.60;40.30;;;;;;5017781;28;20413;-90
2021/06/03 12:04:08;;;;;;;0.80;0.80;;;31.30;39.30;;;;;;5003964;28;20045;-89
2021/06/03 12:06:47;;;;;;;0.90;0.90;;;31.60;39.20;;;;;;5017396;28;20053;-89
2021/06/03 12:09:21;;;;;;;0.80;0.80;;;31.70;37.20;;;;;;5017101;28;20057;-89
2021/06/03 12:11:54;;;;;;;1.27;1.02;;;31.50;39.30;;;;;;5017026;28;20050;-88
2021/06/03 12:14:25;;;;;;;1.35;1.17;;;31.70;38.70;;;;;;5017448;28;20665;-89
2021/06/03 12:17:00;;;;;;;14.52;3.13;;;31.80;39.90;;;;;;5018036;28;20132;-86
2021/06/03 12:19:29;;;;;;;2.13;0.90;;;31.60;38.60;;;;;;5017118;28;20053;-91
2021/06/03 12:21:58;;;;;;;3.13;1.13;;;31.30;39.50;;;;;;5016949;28;20052;-89
2021/06/03 12:24:56;;;;;;;1.23;1.08;;;31.50;39.30;;;;;;5016906;28;20045;-87
2021/06/03 12:27:24;;;;;;;1.90;1.10;;;31.40;39.00;;;;;;5015994;28;20132;-89
2021/06/03 12:29:52;;;;;;;1.67;1.00;;;31.30;38.90;;;;;;5017055;28;20049;-90
2021/06/03 12:32:20;;;;;;;1.02;0.90;;;31.40;39.40;;;;;;5016452;28;20057;-91
2021/06/03 12:34:48;;;;;;;1.98;1.15;;;31.50;40.90;;;;;;5035953;28;20056;-89
2021/06/03 12:37:18;;;;;;;2.33;1.10;;;31.70;39.30;;;;;;5020755;28;20405;-88
2021/06/03 12:39:45;;;;;;;1.58;0.90;;;31.30;38.80;;;;;;5040795;28;20057;-90
2021/06/03 12:42:11;;;;;;;1.58;1.20;;;31.00;38.80;;;;;;5016152;28;20129;-90
2021/06/03 12:44:38;;;;;;;1.85;1.00;;;31.00;39.20;;;;;;5032568;28;20065;-89
2021/06/03 12:47:07;;;;;;;3.28;1.08;;;31.10;42.60;;;;;;5018463;28;20050;-88
2021/06/03 12:49:34;;;;;;;0.85;0.85;;;31.50;40.10;;;;;;5019529;28;20468;-89
2021/06/03 12:52:06;;;;;;;0.75;0.75;;;32.00;40.00;;;;;;5037967;28;20052;-89
2021/06/03 12:54:41;;;;;;;2.75;1.15;;;31.70;38.60;;;;;;5020637;28;20478;-89
2021/06/03 12:57:13;;;;;;;1.15;1.00;;;31.50;38.50;;;;;;5019213;28;20057;-87
2021/06/03 12:59:43;;;;;;;3.17;1.00;;;31.30;39.90;;;;;;5020147;28;20594;-89
2021/06/03 13:02:11;;;;;;;3.58;1.17;;;30.80;38.90;;;;;;5019466;28;20049;-89
2021/06/03 13:04:41;;;;;;;2.95;1.27;;;30.80;40.20;;;;;;5020243;28;20064;-87